sensor_id;sensor_type;location;lat;lon;timestamp;P1;durP1;ratioP1;P2;durP2;ratioP2
12906;SDS011;6521;50.498;8.474;2023-01-15T00:02:30;1.30;;;1.20;;
12906;SDS011;6521;50.498;8.474;2023-01-15T00:05:01;1.57;;;0.90;;
12906;SDS011;6521;50.498;8.474;2023-01-15T00:07:32;1.63;;;1.47;;
12906;SDS011;6521;50.498;8.474;2023-01-15T00:10:03;1.07;;;0.67;;
12906;SDS011;6521;50.498;8.474;2023-01-15T00:12:34;0.70;;;0.70;;
12906;SDS011;6521;50.498;8.474;2023-01-15T00:15:05;0.80;;;0.80;;
12906;SDS011;6521;50.498;8.474;2023-01-15T00:17:36;0.90;;;0.70;;
12906;SDS011;6521;50.498;8.474;2023-01-15T00:20:07;0.73;;;0.70;;
12906;SDS011;6521;50.498;8.474;2023-01-15T00:22:38;1.13;;;0.93;;
12906;SDS011;6521;50.498;8.474;2023-01-15T00:25:10;0.83;;;0.83;;
12906;SDS011;6521;50.498;8.474;2023-01-15T00:27:59;0.80;;;0.60;;
12906;SDS011;6521;50.498;8.474;2023-01-15T00:30:30;3.27;;;0.80;;
12906;SDS011;6521;50.498;8.474;2023-01-15T00:33:03;3.73;;;0.80;;
12906;SDS011;6521;50.498;8.474;2023-01-15T00:35:34;1.10;;;0.90;;
12906;SDS011;6521;50.498;8.474;2023-01-15T00:38:05;1.03;;;0.90;;
12906;SDS011;6521;50.498;8.474;2023-01-15T00:40:36;0.90;;;0.90;;
12906;SDS011;6521;50.498;8.474;2023-01-15T00:43:06;1.77;;;1.00;;
12906;SDS011;6521;50.498;8.474;2023-01-15T00:45:37;3.70;;;1.30;;
12906;SDS011;6521;50.498;8.474;2023-01-15T00:48:08;1.17;;;1.10;;
12906;SDS011;6521;50.498;8.474;2023-01-15T00:50:39;0.90;;;0.90;;
12906;SDS011;6521;50.498;8.474;2023-01-15T00:53:10;1.07;;;0.90;;
12906;SDS011;6521;50.498;8.474;2023-01-15T00:55:41;0.93;;;0.87;;
12906;SDS011;6521;50.498;8.474;2023-01-15T00:58:11;0.90;;;0.90;;
12906;SDS011;6521;50.498;8.474;2023-01-15T01:00:42;0.60;;;0.57;;
12906;SDS011;6521;50.498;8.474;2023-01-15T01:03:13;1.50;;;0.50;;
12906;SDS011;6521;50.498;8.474;2023-01-15T01:05:44;0.70;;;0.70;;
12906;SDS011;6521;50.498;8.474;2023-01-15T01:08:14;0.83;;;0.60;;
12906;SDS011;6521;50.498;8.474;2023-01-15T01:10:46;1.10;;;0.80;;
12906;SDS011;6521;50.498;8.474;2023-01-15T01:13:16;0.57;;;0.57;;
12906;SDS011;6521;50.498;8.474;2023-01-15T01:15:47;0.80;;;0.80;;
12906;SDS011;6521;50.498;8.474;2023-01-15T01:18:19;0.53;;;0.50;;
12906;SDS011;6521;50.498;8.474;2023-01-15T01:20:50;2.67;;;0.70;;
12906;SDS011;6521;50.498;8.474;2023-01-15T01:23:22;1.37;;;0.77;;
12906;SDS011;6521;50.498;8.474;2023-01-15T01:25:56;1.17;;;0.60;;
12906;SDS011;6521;50.498;8.474;2023-01-15T01:28:27;0.80;;;0.80;;
12906;SDS011;6521;50.498;8.474;2023-01-15T01:30:57;0.93;;;0.77;;
12906;SDS011;6521;50.498;8.474;2023-01-15T01:33:28;0.50;;;0.50;;
12906;SDS011;6521;50.498;8.474;2023-01-15T01:35:59;1.57;;;0.80;;
12906;SDS011;6521;50.498;8.474;2023-01-15T01:38:30;0.50;;;0.40;;
12906;SDS011;6521;50.498;8.474;2023-01-15T01:41:01;1.27;;;0.70;;
12906;SDS011;6521;50.498;8.474;2023-01-15T01:43:49;0.60;;;0.60;;
12906;SDS011;6521;50.498;8.474;2023-01-15T01:46:23;0.60;;;0.60;;
12906;SDS011;6521;50.498;8.474;2023-01-15T01:51:35;0.60;;;0.60;;
12906;SDS011;6521;50.498;8.474;2023-01-15T01:54:10;0.73;;;0.60;;
12906;SDS011;6521;50.498;8.474;2023-01-15T01:56:44;0.70;;;0.70;;
12906;SDS011;6521;50.498;8.474;2023-01-15T01:59:16;1.73;;;1.03;;
12906;SDS011;6521;50.498;8.474;2023-01-15T02:01:49;2.27;;;0.73;;
12906;SDS011;6521;50.498;8.474;2023-01-15T02:04:22;0.77;;;0.77;;
12906;SDS011;6521;50.498;8.474;2023-01-15T02:06:56;0.57;;;0.57;;
12906;SDS011;6521;50.498;8.474;2023-01-15T02:09:29;1.20;;;0.67;;
12906;SDS011;6521;50.498;8.474;2023-01-15T02:12:01;0.50;;;0.50;;
12906;SDS011;6521;50.498;8.474;2023-01-15T02:14:42;0.50;;;0.50;;
12906;SDS011;6521;50.498;8.474;2023-01-15T02:17:28;0.60;;;0.60;;
12906;SDS011;6521;50.498;8.474;2023-01-15T02:20:21;0.50;;;0.50;;
12906;SDS011;6521;50.498;8.474;2023-01-15T02:28:33;0.60;;;0.60;;
12906;SDS011;6521;50.498;8.474;2023-01-15T02:31:11;0.50;;;0.50;;
12906;SDS011;6521;50.498;8.474;2023-01-15T02:33:48;0.67;;;0.67;;
12906;SDS011;6521;50.498;8.474;2023-01-15T02:36:25;0.47;;;0.47;;
12906;SDS011;6521;50.498;8.474;2023-01-15T02:39:04;0.50;;;0.50;;
12906;SDS011;6521;50.498;8.474;2023-01-15T02:41:41;2.03;;;0.53;;
12906;SDS011;6521;50.498;8.474;2023-01-15T02:44:15;0.40;;;0.40;;
12906;SDS011;6521;50.498;8.474;2023-01-15T02:46:49;0.50;;;0.50;;
12906;SDS011;6521;50.498;8.474;2023-01-15T02:49:20;0.40;;;0.40;;
12906;SDS011;6521;50.498;8.474;2023-01-15T02:51:54;0.50;;;0.50;;
12906;SDS011;6521;50.498;8.474;2023-01-15T02:54:30;0.47;;;0.47;;
12906;SDS011;6521;50.498;8.474;2023-01-15T02:57:11;1.17;;;0.50;;
12906;SDS011;6521;50.498;8.474;2023-01-15T02:59:45;0.53;;;0.50;;
12906;SDS011;6521;50.498;8.474;2023-01-15T03:02:18;1.43;;;0.67;;
12906;SDS011;6521;50.498;8.474;2023-01-15T03:04:54;0.63;;;0.60;;
12906;SDS011;6521;50.498;8.474;2023-01-15T03:07:36;0.47;;;0.47;;
12906;SDS011;6521;50.498;8.474;2023-01-15T03:10:17;0.50;;;0.50;;
12906;SDS011;6521;50.498;8.474;2023-01-15T03:12:56;0.90;;;0.50;;
12906;SDS011;6521;50.498;8.474;2023-01-15T03:18:55;0.60;;;0.60;;
12906;SDS011;6521;50.498;8.474;2023-01-15T03:21:35;0.70;;;0.50;;
12906;SDS011;6521;50.498;8.474;2023-01-15T03:24:14;0.73;;;0.50;;
12906;SDS011;6521;50.498;8.474;2023-01-15T03:27:02;0.73;;;0.60;;
12906;SDS011;6521;50.498;8.474;2023-01-15T03:29:35;0.77;;;0.50;;
12906;SDS011;6521;50.498;8.474;2023-01-15T03:32:11;1.20;;;0.60;;
12906;SDS011;6521;50.498;8.474;2023-01-15T03:34:43;1.03;;;0.60;;
12906;SDS011;6521;50.498;8.474;2023-01-15T03:37:21;0.77;;;0.53;;
12906;SDS011;6521;50.498;8.474;2023-01-15T03:39:55;0.73;;;0.60;;
12906;SDS011;6521;50.498;8.474;2023-01-15T03:42:34;0.83;;;0.60;;
12906;SDS011;6521;50.498;8.474;2023-01-15T03:45:22;0.80;;;0.73;;
12906;SDS011;6521;50.498;8.474;2023-01-15T03:48:01;0.93;;;0.60;;
12906;SDS011;6521;50.498;8.474;2023-01-15T03:53:31;2.87;;;0.60;;
12906;SDS011;6521;50.498;8.474;2023-01-15T03:56:09;1.70;;;0.70;;
12906;SDS011;6521;50.498;8.474;2023-01-15T04:01:53;0.60;;;0.60;;
12906;SDS011;6521;50.498;8.474;2023-01-15T04:04:26;0.50;;;0.50;;
12906;SDS011;6521;50.498;8.474;2023-01-15T04:06:58;1.33;;;0.70;;
12906;SDS011;6521;50.498;8.474;2023-01-15T04:09:30;1.23;;;0.60;;
12906;SDS011;6521;50.498;8.474;2023-01-15T04:12:02;1.23;;;0.80;;
12906;SDS011;6521;50.498;8.474;2023-01-15T04:14:38;3.80;;;0.77;;
12906;SDS011;6521;50.498;8.474;2023-01-15T04:17:13;0.50;;;0.50;;
12906;SDS011;6521;50.498;8.474;2023-01-15T04:19:43;0.77;;;0.77;;
12906;SDS011;6521;50.498;8.474;2023-01-15T04:22:14;1.80;;;0.80;;
12906;SDS011;6521;50.498;8.474;2023-01-15T04:24:45;0.60;;;0.60;;
12906;SDS011;6521;50.498;8.474;2023-01-15T04:27:15;2.27;;;0.97;;
12906;SDS011;6521;50.498;8.474;2023-01-15T04:29:46;0.63;;;0.63;;
12906;SDS011;6521;50.498;8.474;2023-01-15T04:32:17;1.60;;;0.90;;
12906;SDS011;6521;50.498;8.474;2023-01-15T04:34:48;2.07;;;1.00;;
12906;SDS011;6521;50.498;8.474;2023-01-15T04:37:20;1.20;;;1.10;;
12906;SDS011;6521;50.498;8.474;2023-01-15T04:39:51;1.17;;;0.70;;
12906;SDS011;6521;50.498;8.474;2023-01-15T04:42:21;2.10;;;0.87;;
12906;SDS011;6521;50.498;8.474;2023-01-15T04:45:11;0.77;;;0.70;;
12906;SDS011;6521;50.498;8.474;2023-01-15T04:47:42;4.93;;;0.90;;
12906;SDS011;6521;50.498;8.474;2023-01-15T04:50:12;1.77;;;0.70;;
12906;SDS011;6521;50.498;8.474;2023-01-15T04:52:43;0.80;;;0.80;;
12906;SDS011;6521;50.498;8.474;2023-01-15T04:55:14;1.03;;;0.70;;
12906;SDS011;6521;50.498;8.474;2023-01-15T04:57:48;1.30;;;0.60;;
12906;SDS011;6521;50.498;8.474;2023-01-15T05:00:19;0.93;;;0.80;;
12906;SDS011;6521;50.498;8.474;2023-01-15T05:02:51;0.60;;;0.60;;
12906;SDS011;6521;50.498;8.474;2023-01-15T05:05:22;2.37;;;0.70;;
12906;SDS011;6521;50.498;8.474;2023-01-15T05:07:52;2.33;;;0.70;;
12906;SDS011;6521;50.498;8.474;2023-01-15T05:10:23;0.50;;;0.50;;
12906;SDS011;6521;50.498;8.474;2023-01-15T05:12:54;1.70;;;0.57;;
12906;SDS011;6521;50.498;8.474;2023-01-15T05:15:24;1.30;;;0.87;;
12906;SDS011;6521;50.498;8.474;2023-01-15T05:17:55;3.80;;;1.30;;
12906;SDS011;6521;50.498;8.474;2023-01-15T05:20:26;1.93;;;1.30;;
12906;SDS011;6521;50.498;8.474;2023-01-15T05:22:56;0.80;;;0.80;;
12906;SDS011;6521;50.498;8.474;2023-01-15T05:25:27;0.80;;;0.80;;
12906;SDS011;6521;50.498;8.474;2023-01-15T05:27:58;1.13;;;0.90;;
12906;SDS011;6521;50.498;8.474;2023-01-15T05:30:28;3.00;;;1.00;;
12906;SDS011;6521;50.498;8.474;2023-01-15T05:32:59;1.17;;;0.93;;
12906;SDS011;6521;50.498;8.474;2023-01-15T05:35:30;3.17;;;1.60;;
12906;SDS011;6521;50.498;8.474;2023-01-15T05:38:01;2.10;;;1.00;;
12906;SDS011;6521;50.498;8.474;2023-01-15T05:40:33;3.07;;;1.40;;
12906;SDS011;6521;50.498;8.474;2023-01-15T05:43:03;2.53;;;1.00;;
12906;SDS011;6521;50.498;8.474;2023-01-15T05:45:34;1.27;;;0.70;;
12906;SDS011;6521;50.498;8.474;2023-01-15T05:48:07;2.43;;;0.70;;
12906;SDS011;6521;50.498;8.474;2023-01-15T05:50:38;1.47;;;0.70;;
12906;SDS011;6521;50.498;8.474;2023-01-15T05:53:08;2.30;;;0.97;;
12906;SDS011;6521;50.498;8.474;2023-01-15T05:55:39;1.90;;;0.90;;
12906;SDS011;6521;50.498;8.474;2023-01-15T05:58:10;1.40;;;0.80;;
12906;SDS011;6521;50.498;8.474;2023-01-15T06:00:40;4.03;;;0.90;;
12906;SDS011;6521;50.498;8.474;2023-01-15T06:03:11;2.63;;;0.67;;
12906;SDS011;6521;50.498;8.474;2023-01-15T06:05:42;2.50;;;0.63;;
12906;SDS011;6521;50.498;8.474;2023-01-15T06:08:13;2.40;;;0.80;;
12906;SDS011;6521;50.498;8.474;2023-01-15T06:10:44;5.27;;;0.80;;
12906;SDS011;6521;50.498;8.474;2023-01-15T06:13:16;5.00;;;1.50;;
12906;SDS011;6521;50.498;8.474;2023-01-15T06:15:47;1.03;;;0.77;;
12906;SDS011;6521;50.498;8.474;2023-01-15T06:18:17;2.30;;;0.90;;
12906;SDS011;6521;50.498;8.474;2023-01-15T06:20:48;3.20;;;0.87;;
12906;SDS011;6521;50.498;8.474;2023-01-15T06:23:19;1.80;;;0.60;;
12906;SDS011;6521;50.498;8.474;2023-01-15T06:25:50;1.03;;;0.70;;
12906;SDS011;6521;50.498;8.474;2023-01-15T06:28:20;1.37;;;0.70;;
12906;SDS011;6521;50.498;8.474;2023-01-15T06:30:52;3.90;;;0.87;;
12906;SDS011;6521;50.498;8.474;2023-01-15T06:33:23;2.37;;;0.80;;
12906;SDS011;6521;50.498;8.474;2023-01-15T06:35:55;3.23;;;0.67;;
12906;SDS011;6521;50.498;8.474;2023-01-15T06:38:26;4.33;;;0.90;;
12906;SDS011;6521;50.498;8.474;2023-01-15T06:40:58;1.13;;;0.60;;
12906;SDS011;6521;50.498;8.474;2023-01-15T06:43:30;3.53;;;0.70;;
12906;SDS011;6521;50.498;8.474;2023-01-15T06:46:19;6.13;;;1.10;;
12906;SDS011;6521;50.498;8.474;2023-01-15T06:49:08;1.03;;;0.73;;
12906;SDS011;6521;50.498;8.474;2023-01-15T06:51:39;1.73;;;1.00;;
12906;SDS011;6521;50.498;8.474;2023-01-15T06:54:09;1.10;;;1.00;;
12906;SDS011;6521;50.498;8.474;2023-01-15T06:56:40;9.77;;;2.17;;
12906;SDS011;6521;50.498;8.474;2023-01-15T06:59:11;9.03;;;1.93;;
12906;SDS011;6521;50.498;8.474;2023-01-15T07:01:41;2.10;;;1.00;;
12906;SDS011;6521;50.498;8.474;2023-01-15T07:04:13;6.60;;;1.00;;
12906;SDS011;6521;50.498;8.474;2023-01-15T07:06:44;2.63;;;1.20;;
12906;SDS011;6521;50.498;8.474;2023-01-15T07:09:17;2.40;;;1.10;;
12906;SDS011;6521;50.498;8.474;2023-01-15T07:11:47;3.03;;;1.17;;
12906;SDS011;6521;50.498;8.474;2023-01-15T07:14:22;2.83;;;0.93;;
12906;SDS011;6521;50.498;8.474;2023-01-15T07:16:54;1.43;;;1.20;;
12906;SDS011;6521;50.498;8.474;2023-01-15T07:19:25;2.17;;;0.90;;
12906;SDS011;6521;50.498;8.474;2023-01-15T07:21:57;0.63;;;0.60;;
12906;SDS011;6521;50.498;8.474;2023-01-15T07:24:27;1.10;;;0.70;;
12906;SDS011;6521;50.498;8.474;2023-01-15T07:26:58;1.93;;;0.80;;
12906;SDS011;6521;50.498;8.474;2023-01-15T07:29:29;2.80;;;1.00;;
12906;SDS011;6521;50.498;8.474;2023-01-15T07:32:01;1.17;;;0.83;;
12906;SDS011;6521;50.498;8.474;2023-01-15T07:34:33;7.43;;;1.13;;
12906;SDS011;6521;50.498;8.474;2023-01-15T07:37:04;1.77;;;0.83;;
12906;SDS011;6521;50.498;8.474;2023-01-15T07:39:35;1.63;;;0.90;;
12906;SDS011;6521;50.498;8.474;2023-01-15T07:42:05;1.10;;;0.73;;
12906;SDS011;6521;50.498;8.474;2023-01-15T07:44:58;0.67;;;0.50;;
12906;SDS011;6521;50.498;8.474;2023-01-15T07:47:48;1.20;;;0.60;;
12906;SDS011;6521;50.498;8.474;2023-01-15T07:50:37;0.73;;;0.73;;
12906;SDS011;6521;50.498;8.474;2023-01-15T07:53:08;0.77;;;0.77;;
12906;SDS011;6521;50.498;8.474;2023-01-15T07:55:39;1.60;;;0.90;;
12906;SDS011;6521;50.498;8.474;2023-01-15T07:58:10;2.10;;;0.90;;
12906;SDS011;6521;50.498;8.474;2023-01-15T08:00:40;1.57;;;0.90;;
12906;SDS011;6521;50.498;8.474;2023-01-15T08:03:11;0.60;;;0.60;;
12906;SDS011;6521;50.498;8.474;2023-01-15T08:05:42;1.67;;;0.87;;
12906;SDS011;6521;50.498;8.474;2023-01-15T08:08:16;0.80;;;0.80;;
12906;SDS011;6521;50.498;8.474;2023-01-15T08:10:47;0.67;;;0.60;;
12906;SDS011;6521;50.498;8.474;2023-01-15T08:13:37;0.47;;;0.47;;
12906;SDS011;6521;50.498;8.474;2023-01-15T08:16:26;0.60;;;0.60;;
12906;SDS011;6521;50.498;8.474;2023-01-15T08:18:58;1.33;;;0.63;;
12906;SDS011;6521;50.498;8.474;2023-01-15T08:21:29;0.77;;;0.77;;
12906;SDS011;6521;50.498;8.474;2023-01-15T08:24:00;1.83;;;0.70;;
12906;SDS011;6521;50.498;8.474;2023-01-15T08:26:31;0.90;;;0.90;;
12906;SDS011;6521;50.498;8.474;2023-01-15T08:29:01;2.13;;;1.00;;
12906;SDS011;6521;50.498;8.474;2023-01-15T08:31:32;1.20;;;1.10;;
12906;SDS011;6521;50.498;8.474;2023-01-15T08:34:03;1.07;;;0.80;;
12906;SDS011;6521;50.498;8.474;2023-01-15T08:36:34;2.53;;;1.03;;
12906;SDS011;6521;50.498;8.474;2023-01-15T08:39:05;3.57;;;2.67;;
12906;SDS011;6521;50.498;8.474;2023-01-15T08:41:35;2.30;;;1.90;;
12906;SDS011;6521;50.498;8.474;2023-01-15T08:44:08;1.63;;;1.40;;
12906;SDS011;6521;50.498;8.474;2023-01-15T08:46:39;2.13;;;1.67;;
12906;SDS011;6521;50.498;8.474;2023-01-15T08:49:09;1.47;;;1.30;;
12906;SDS011;6521;50.498;8.474;2023-01-15T08:51:40;5.87;;;1.50;;
12906;SDS011;6521;50.498;8.474;2023-01-15T08:54:11;2.20;;;2.00;;
12906;SDS011;6521;50.498;8.474;2023-01-15T08:56:43;1.00;;;1.00;;
12906;SDS011;6521;50.498;8.474;2023-01-15T08:59:17;3.23;;;1.23;;
12906;SDS011;6521;50.498;8.474;2023-01-15T09:01:51;4.10;;;1.27;;
12906;SDS011;6521;50.498;8.474;2023-01-15T09:04:22;1.87;;;1.20;;
12906;SDS011;6521;50.498;8.474;2023-01-15T09:06:53;1.33;;;1.20;;
12906;SDS011;6521;50.498;8.474;2023-01-15T09:09:24;4.93;;;1.67;;
12906;SDS011;6521;50.498;8.474;2023-01-15T09:11:54;3.43;;;1.17;;
12906;SDS011;6521;50.498;8.474;2023-01-15T09:14:25;0.90;;;0.90;;
12906;SDS011;6521;50.498;8.474;2023-01-15T09:16:59;1.07;;;0.80;;
12906;SDS011;6521;50.498;8.474;2023-01-15T09:19:30;1.30;;;0.90;;
12906;SDS011;6521;50.498;8.474;2023-01-15T09:22:00;1.80;;;1.10;;
12906;SDS011;6521;50.498;8.474;2023-01-15T09:24:31;5.30;;;1.40;;
12906;SDS011;6521;50.498;8.474;2023-01-15T09:27:02;1.60;;;1.00;;
12906;SDS011;6521;50.498;8.474;2023-01-15T09:29:33;0.87;;;0.73;;
12906;SDS011;6521;50.498;8.474;2023-01-15T09:32:03;1.10;;;1.00;;
12906;SDS011;6521;50.498;8.474;2023-01-15T09:34:34;1.33;;;1.00;;
12906;SDS011;6521;50.498;8.474;2023-01-15T09:37:05;1.47;;;1.10;;
12906;SDS011;6521;50.498;8.474;2023-01-15T09:39:36;1.70;;;1.20;;
12906;SDS011;6521;50.498;8.474;2023-01-15T09:45:12;1.13;;;0.70;;
12906;SDS011;6521;50.498;8.474;2023-01-15T09:47:49;2.37;;;1.00;;
12906;SDS011;6521;50.498;8.474;2023-01-15T09:50:33;4.93;;;1.20;;
12906;SDS011;6521;50.498;8.474;2023-01-15T09:55:58;3.07;;;1.00;;
12906;SDS011;6521;50.498;8.474;2023-01-15T09:58:35;2.27;;;0.90;;
12906;SDS011;6521;50.498;8.474;2023-01-15T10:01:09;1.00;;;1.00;;
12906;SDS011;6521;50.498;8.474;2023-01-15T10:03:55;2.63;;;0.80;;
12906;SDS011;6521;50.498;8.474;2023-01-15T10:09:16;2.20;;;0.90;;
12906;SDS011;6521;50.498;8.474;2023-01-15T10:11:55;2.90;;;1.27;;
12906;SDS011;6521;50.498;8.474;2023-01-15T10:17:47;2.47;;;0.80;;
12906;SDS011;6521;50.498;8.474;2023-01-15T10:20:26;0.80;;;0.70;;
12906;SDS011;6521;50.498;8.474;2023-01-15T10:23:11;1.63;;;1.00;;
12906;SDS011;6521;50.498;8.474;2023-01-15T10:25:56;1.70;;;0.90;;
12906;SDS011;6521;50.498;8.474;2023-01-15T10:31:24;0.80;;;0.80;;
12906;SDS011;6521;50.498;8.474;2023-01-15T10:37:26;3.80;;;0.83;;
12906;SDS011;6521;50.498;8.474;2023-01-15T10:43:06;5.37;;;2.97;;
12906;SDS011;6521;50.498;8.474;2023-01-15T10:45:52;4.03;;;0.90;;
12906;SDS011;6521;50.498;8.474;2023-01-15T10:51:11;3.57;;;1.20;;
12906;SDS011;6521;50.498;8.474;2023-01-15T10:54:50;4.20;;;1.00;;
12906;SDS011;6521;50.498;8.474;2023-01-15T10:57:11;2.20;;;0.97;;
12906;SDS011;6521;50.498;8.474;2023-01-15T10:59:51;4.50;;;1.67;;
12906;SDS011;6521;50.498;8.474;2023-01-15T11:02:40;4.27;;;1.40;;
12906;SDS011;6521;50.498;8.474;2023-01-15T11:05:15;4.00;;;1.23;;
12906;SDS011;6521;50.498;8.474;2023-01-15T11:07:52;2.37;;;1.53;;
12906;SDS011;6521;50.498;8.474;2023-01-15T11:10:23;5.70;;;1.60;;
12906;SDS011;6521;50.498;8.474;2023-01-15T11:12:55;9.47;;;1.73;;
12906;SDS011;6521;50.498;8.474;2023-01-15T11:16:19;2.40;;;1.30;;
12906;SDS011;6521;50.498;8.474;2023-01-15T11:19:36;3.57;;;1.00;;
12906;SDS011;6521;50.498;8.474;2023-01-15T11:24:54;5.47;;;1.30;;
12906;SDS011;6521;50.498;8.474;2023-01-15T11:27:29;4.07;;;1.30;;
12906;SDS011;6521;50.498;8.474;2023-01-15T11:30:03;4.93;;;1.57;;
12906;SDS011;6521;50.498;8.474;2023-01-15T11:32:36;5.90;;;1.37;;
12906;SDS011;6521;50.498;8.474;2023-01-15T11:37:38;4.37;;;0.93;;
12906;SDS011;6521;50.498;8.474;2023-01-15T11:40:16;3.77;;;1.57;;
12906;SDS011;6521;50.498;8.474;2023-01-15T11:42:53;6.87;;;1.30;;
12906;SDS011;6521;50.498;8.474;2023-01-15T11:45:51;4.00;;;1.30;;
12906;SDS011;6521;50.498;8.474;2023-01-15T11:48:46;4.67;;;1.43;;
12906;SDS011;6521;50.498;8.474;2023-01-15T11:51:40;1.70;;;0.97;;
12906;SDS011;6521;50.498;8.474;2023-01-15T11:54:15;6.13;;;1.43;;
12906;SDS011;6521;50.498;8.474;2023-01-15T11:56:47;4.67;;;1.80;;
12906;SDS011;6521;50.498;8.474;2023-01-15T11:59:18;4.97;;;1.60;;
12906;SDS011;6521;50.498;8.474;2023-01-15T12:01:59;8.47;;;2.07;;
12906;SDS011;6521;50.498;8.474;2023-01-15T12:04:45;4.33;;;1.63;;
12906;SDS011;6521;50.498;8.474;2023-01-15T12:07:24;6.53;;;1.43;;
12906;SDS011;6521;50.498;8.474;2023-01-15T12:21:33;4.70;;;1.23;;
12906;SDS011;6521;50.498;8.474;2023-01-15T12:24:24;3.67;;;1.50;;
12906;SDS011;6521;50.498;8.474;2023-01-15T12:32:43;7.07;;;1.47;;
12906;SDS011;6521;50.498;8.474;2023-01-15T12:35:30;1.73;;;0.90;;
12906;SDS011;6521;50.498;8.474;2023-01-15T12:40:48;6.23;;;1.63;;
12906;SDS011;6521;50.498;8.474;2023-01-15T12:43:24;7.07;;;1.63;;
12906;SDS011;6521;50.498;8.474;2023-01-15T12:46:18;4.83;;;1.57;;
12906;SDS011;6521;50.498;8.474;2023-01-15T12:49:03;2.43;;;1.40;;
12906;SDS011;6521;50.498;8.474;2023-01-15T12:51:45;4.03;;;1.20;;
12906;SDS011;6521;50.498;8.474;2023-01-15T12:54:27;5.80;;;1.40;;
12906;SDS011;6521;50.498;8.474;2023-01-15T13:03:23;8.50;;;1.30;;
12906;SDS011;6521;50.498;8.474;2023-01-15T13:06:04;4.13;;;1.33;;
12906;SDS011;6521;50.498;8.474;2023-01-15T13:11:24;3.80;;;1.20;;
12906;SDS011;6521;50.498;8.474;2023-01-15T13:13:55;3.93;;;1.03;;
12906;SDS011;6521;50.498;8.474;2023-01-15T13:22:11;5.70;;;1.27;;
12906;SDS011;6521;50.498;8.474;2023-01-15T13:25:05;2.27;;;1.30;;
12906;SDS011;6521;50.498;8.474;2023-01-15T13:31:03;3.30;;;1.30;;
12906;SDS011;6521;50.498;8.474;2023-01-15T13:34:03;5.30;;;1.20;;
12906;SDS011;6521;50.498;8.474;2023-01-15T13:36:41;3.23;;;1.30;;
12906;SDS011;6521;50.498;8.474;2023-01-15T13:39:19;1.60;;;1.00;;
12906;SDS011;6521;50.498;8.474;2023-01-15T13:41:54;3.50;;;1.37;;
12906;SDS011;6521;50.498;8.474;2023-01-15T13:44:46;4.00;;;1.20;;
12906;SDS011;6521;50.498;8.474;2023-01-15T13:47:22;3.63;;;1.33;;
12906;SDS011;6521;50.498;8.474;2023-01-15T13:49:58;2.17;;;1.07;;
12906;SDS011;6521;50.498;8.474;2023-01-15T13:52:34;1.17;;;0.80;;
12906;SDS011;6521;50.498;8.474;2023-01-15T13:55:08;1.80;;;0.80;;
12906;SDS011;6521;50.498;8.474;2023-01-15T13:57:39;7.33;;;1.10;;
12906;SDS011;6521;50.498;8.474;2023-01-15T14:00:33;1.43;;;1.33;;
12906;SDS011;6521;50.498;8.474;2023-01-15T14:03:26;7.07;;;1.40;;
12906;SDS011;6521;50.498;8.474;2023-01-15T14:06:01;3.90;;;1.83;;
12906;SDS011;6521;50.498;8.474;2023-01-15T14:16:52;2.23;;;1.20;;
12906;SDS011;6521;50.498;8.474;2023-01-15T14:19:55;3.90;;;1.30;;
12906;SDS011;6521;50.498;8.474;2023-01-15T14:25:30;10.53;;;1.87;;
12906;SDS011;6521;50.498;8.474;2023-01-15T14:31:03;6.60;;;1.80;;
12906;SDS011;6521;50.498;8.474;2023-01-15T14:36:37;4.70;;;1.53;;
12906;SDS011;6521;50.498;8.474;2023-01-15T14:39:21;2.77;;;1.30;;
12906;SDS011;6521;50.498;8.474;2023-01-15T14:42:16;8.33;;;1.37;;
12906;SDS011;6521;50.498;8.474;2023-01-15T14:45:07;2.63;;;1.20;;
12906;SDS011;6521;50.498;8.474;2023-01-15T14:47:48;4.47;;;1.50;;
12906;SDS011;6521;50.498;8.474;2023-01-15T14:50:31;9.73;;;1.40;;
12906;SDS011;6521;50.498;8.474;2023-01-15T15:06:59;2.83;;;1.30;;
12906;SDS011;6521;50.498;8.474;2023-01-15T15:09:35;5.10;;;1.37;;
12906;SDS011;6521;50.498;8.474;2023-01-15T15:12:16;6.20;;;1.43;;
12906;SDS011;6521;50.498;8.474;2023-01-15T15:14:59;5.60;;;1.47;;
12906;SDS011;6521;50.498;8.474;2023-01-15T15:17:39;6.90;;;1.27;;
12906;SDS011;6521;50.498;8.474;2023-01-15T15:22:54;5.07;;;1.70;;
12906;SDS011;6521;50.498;8.474;2023-01-15T15:25:28;2.97;;;1.00;;
12906;SDS011;6521;50.498;8.474;2023-01-15T15:28:04;6.63;;;1.50;;
12906;SDS011;6521;50.498;8.474;2023-01-15T15:30:42;6.97;;;1.37;;
12906;SDS011;6521;50.498;8.474;2023-01-15T15:33:19;5.53;;;1.53;;
12906;SDS011;6521;50.498;8.474;2023-01-15T15:35:53;2.20;;;1.40;;
12906;SDS011;6521;50.498;8.474;2023-01-15T15:38:26;4.37;;;1.60;;
12906;SDS011;6521;50.498;8.474;2023-01-15T15:40:57;2.93;;;1.80;;
12906;SDS011;6521;50.498;8.474;2023-01-15T15:43:44;9.17;;;2.77;;
12906;SDS011;6521;50.498;8.474;2023-01-15T15:46:46;2.93;;;1.23;;
12906;SDS011;6521;50.498;8.474;2023-01-15T15:49:40;5.57;;;1.50;;
12906;SDS011;6521;50.498;8.474;2023-01-15T15:52:17;9.27;;;1.63;;
12906;SDS011;6521;50.498;8.474;2023-01-15T15:54:58;2.10;;;1.20;;
12906;SDS011;6521;50.498;8.474;2023-01-15T15:57:31;2.53;;;1.30;;
12906;SDS011;6521;50.498;8.474;2023-01-15T16:00:04;4.40;;;1.40;;
12906;SDS011;6521;50.498;8.474;2023-01-15T16:02:47;8.77;;;1.53;;
12906;SDS011;6521;50.498;8.474;2023-01-15T16:05:25;4.63;;;1.80;;
12906;SDS011;6521;50.498;8.474;2023-01-15T16:10:51;2.60;;;0.93;;
12906;SDS011;6521;50.498;8.474;2023-01-15T16:13:24;2.67;;;1.67;;
12906;SDS011;6521;50.498;8.474;2023-01-15T16:16:00;4.90;;;1.50;;
12906;SDS011;6521;50.498;8.474;2023-01-15T16:18:37;3.00;;;2.10;;
12906;SDS011;6521;50.498;8.474;2023-01-15T16:21:20;3.23;;;1.47;;
12906;SDS011;6521;50.498;8.474;2023-01-15T16:24:04;4.93;;;1.83;;
12906;SDS011;6521;50.498;8.474;2023-01-15T16:26:51;10.70;;;2.40;;
12906;SDS011;6521;50.498;8.474;2023-01-15T16:29:46;2.70;;;1.63;;
12906;SDS011;6521;50.498;8.474;2023-01-15T16:32:23;5.30;;;1.87;;
12906;SDS011;6521;50.498;8.474;2023-01-15T16:35:32;3.23;;;1.43;;
12906;SDS011;6521;50.498;8.474;2023-01-15T16:37:56;2.70;;;1.30;;
12906;SDS011;6521;50.498;8.474;2023-01-15T16:40:34;2.93;;;1.20;;
12906;SDS011;6521;50.498;8.474;2023-01-15T16:43:09;1.40;;;1.10;;
12906;SDS011;6521;50.498;8.474;2023-01-15T16:45:55;4.17;;;1.60;;
12906;SDS011;6521;50.498;8.474;2023-01-15T16:48:35;6.77;;;1.33;;
12906;SDS011;6521;50.498;8.474;2023-01-15T16:54:11;3.23;;;1.33;;
12906;SDS011;6521;50.498;8.474;2023-01-15T16:57:03;3.97;;;1.30;;
12906;SDS011;6521;50.498;8.474;2023-01-15T17:02:16;2.97;;;1.17;;
12906;SDS011;6521;50.498;8.474;2023-01-15T17:04:52;4.17;;;1.33;;
12906;SDS011;6521;50.498;8.474;2023-01-15T17:07:30;2.43;;;1.07;;
12906;SDS011;6521;50.498;8.474;2023-01-15T17:10:16;3.37;;;1.20;;
12906;SDS011;6521;50.498;8.474;2023-01-15T17:12:49;5.10;;;1.63;;
12906;SDS011;6521;50.498;8.474;2023-01-15T17:17:54;5.13;;;1.50;;
12906;SDS011;6521;50.498;8.474;2023-01-15T17:20:25;4.57;;;1.50;;
12906;SDS011;6521;50.498;8.474;2023-01-15T17:22:57;3.50;;;1.20;;
12906;SDS011;6521;50.498;8.474;2023-01-15T17:25:32;3.90;;;1.07;;
12906;SDS011;6521;50.498;8.474;2023-01-15T17:28:04;4.10;;;1.10;;
12906;SDS011;6521;50.498;8.474;2023-01-15T17:30:35;3.27;;;1.13;;
12906;SDS011;6521;50.498;8.474;2023-01-15T17:33:06;1.47;;;1.00;;
12906;SDS011;6521;50.498;8.474;2023-01-15T17:35:39;5.03;;;1.27;;
12906;SDS011;6521;50.498;8.474;2023-01-15T17:38:11;5.13;;;1.10;;
12906;SDS011;6521;50.498;8.474;2023-01-15T17:40:44;6.13;;;1.30;;
12906;SDS011;6521;50.498;8.474;2023-01-15T17:43:15;4.87;;;1.20;;
12906;SDS011;6521;50.498;8.474;2023-01-15T17:45:46;6.77;;;2.00;;
12906;SDS011;6521;50.498;8.474;2023-01-15T17:48:17;4.73;;;1.53;;
12906;SDS011;6521;50.498;8.474;2023-01-15T17:50:49;4.30;;;1.50;;
12906;SDS011;6521;50.498;8.474;2023-01-15T17:53:21;6.43;;;1.90;;
12906;SDS011;6521;50.498;8.474;2023-01-15T17:55:51;5.90;;;1.33;;
12906;SDS011;6521;50.498;8.474;2023-01-15T17:58:41;6.13;;;1.87;;
12906;SDS011;6521;50.498;8.474;2023-01-15T18:01:41;2.67;;;1.40;;
12906;SDS011;6521;50.498;8.474;2023-01-15T18:04:45;8.53;;;2.00;;